createdAt,value
2022-09-07T04:00:55.959Z,54.56
2022-09-07T04:03:25.344Z,54.86
2022-09-07T04:05:54.221Z,54.75
2022-09-07T04:08:27.818Z,54.63
2022-09-07T04:10:57.864Z,54.63
2022-09-07T04:13:27.719Z,54.80
2022-09-07T04:15:57.272Z,54.87
2022-09-07T04:18:26.675Z,54.74
2022-09-07T04:20:59.563Z,54.75
2022-09-07T04:23:28.049Z,54.89
2022-09-07T04:25:56.852Z,54.97
2022-09-07T04:28:25.823Z,54.93
2022-09-07T04:30:55.040Z,55.19
2022-09-07T04:33:24.070Z,55.12
2022-09-07T04:35:53.156Z,55.25
2022-09-07T04:38:21.810Z,55.20
2022-09-07T04:40:50.747Z,55.35
2022-09-07T04:43:19.605Z,55.33
2022-09-07T04:45:48.727Z,55.52
2022-09-07T04:48:17.636Z,55.41
2022-09-07T04:50:46.689Z,55.21
2022-09-07T04:53:15.399Z,55.32
2022-09-07T04:55:44.615Z,55.52
2022-09-07T04:58:13.536Z,55.60
2022-09-07T05:00:44.509Z,55.59
2022-09-07T05:03:12.806Z,55.81
2022-09-07T05:05:41.764Z,55.87
2022-09-07T05:08:10.719Z,55.99
2022-09-07T05:10:40.251Z,55.93
2022-09-07T05:13:09.517Z,56.04
2022-09-07T05:15:38.117Z,56.17
2022-09-07T05:18:06.383Z,56.11
2022-09-07T05:20:35.444Z,56.13
2022-09-07T05:23:04.412Z,56.17
2022-09-07T05:25:33.697Z,55.99
2022-09-07T05:28:02.473Z,56.01
2022-09-07T05:33:21.126Z,56.27
2022-09-07T05:36:01.359Z,56.17
2022-09-07T05:38:30.900Z,56.22
2022-09-07T05:40:59.651Z,56.18
2022-09-07T05:43:28.493Z,56.29
2022-09-07T05:45:58.018Z,56.34
2022-09-07T05:48:26.299Z,56.08
2022-09-07T05:50:55.319Z,56.14
2022-09-07T05:53:24.279Z,56.18
2022-09-07T05:55:52.998Z,56.15
2022-09-07T05:58:21.832Z,56.39
2022-09-07T06:00:50.623Z,55.82
2022-09-07T06:03:19.928Z,54.82
2022-09-07T06:05:49.027Z,53.76
2022-09-07T06:08:18.117Z,53.42
2022-09-07T06:10:46.970Z,52.20
2022-09-07T06:13:15.654Z,51.10
2022-09-07T06:15:44.734Z,50.32
2022-09-07T06:18:13.807Z,49.58
2022-09-07T06:20:42.369Z,49.44
2022-09-07T06:23:11.288Z,50.50
2022-09-07T06:25:49.311Z,51.78
2022-09-07T06:28:18.870Z,52.23
2022-09-07T06:30:47.618Z,52.42
2022-09-07T06:33:19.589Z,52.54
2022-09-07T06:36:02.621Z,52.20
2022-09-07T06:38:33.929Z,52.18
2022-09-07T06:43:55.814Z,52.09
2022-09-07T06:49:15.868Z,51.77
2022-09-07T06:51:44.935Z,52.11
2022-09-07T06:57:09.522Z,51.93
2022-09-07T06:59:41.600Z,51.89
2022-09-07T07:02:12.063Z,51.70
2022-09-07T07:04:41.536Z,51.58
2022-09-07T07:07:14.520Z,51.54
2022-09-07T07:09:43.817Z,51.42
2022-09-07T07:12:12.806Z,51.44
2022-09-07T07:14:45.005Z,51.28
2022-09-07T07:17:14.526Z,51.27
2022-09-07T07:19:43.536Z,51.34
2022-09-07T07:22:36.096Z,51.26
2022-09-07T07:25:01.950Z,51.15
2022-09-07T07:27:31.922Z,50.95
2022-09-07T07:30:00.911Z,50.86
2022-09-07T07:32:29.830Z,50.76
2022-09-07T07:34:59.407Z,50.76
2022-09-07T07:37:28.439Z,50.54
2022-09-07T07:42:46.146Z,50.35
2022-09-07T07:48:03.674Z,50.10
2022-09-07T07:50:33.250Z,49.99
2022-09-07T07:55:53.162Z,50.08
2022-09-07T07:58:21.713Z,50.00
2022-09-07T08:00:54.664Z,49.89
2022-09-07T08:03:25.537Z,49.83
2022-09-07T08:05:55.423Z,49.77
2022-09-07T08:08:24.736Z,49.71
2022-09-07T08:10:53.261Z,49.52
2022-09-07T08:13:21.689Z,49.47
2022-09-07T08:15:49.853Z,49.41
2022-09-07T08:18:18.144Z,49.29
2022-09-07T08:20:47.063Z,49.15
2022-09-07T08:23:16.122Z,48.93
2022-09-07T08:25:55.192Z,48.91
2022-09-07T08:28:24.096Z,48.88
2022-09-07T08:30:52.464Z,48.94
2022-09-07T08:33:21.442Z,49.03
2022-09-07T08:36:04.039Z,48.80
2022-09-07T08:38:34.528Z,48.66
2022-09-07T08:41:22.677Z,48.58
2022-09-07T08:43:59.127Z,48.45
2022-09-07T08:46:41.162Z,48.35
2022-09-07T08:49:36.130Z,48.25
2022-09-07T08:52:11.129Z,47.98
2022-09-07T08:54:45.063Z,48.05
2022-09-07T08:57:21.515Z,47.85
2022-09-07T09:00:15.231Z,47.61
2022-09-07T09:02:45.616Z,47.69
2022-09-07T09:05:40.941Z,47.50
2022-09-07T09:08:27.276Z,47.23
2022-09-07T09:11:04.315Z,47.28
2022-09-07T09:13:52.388Z,47.22
2022-09-07T09:16:33.396Z,47.06
2022-09-07T09:19:36.088Z,46.84
2022-09-07T09:22:22.047Z,47.09
2022-09-07T09:25:05.860Z,46.94
2022-09-07T09:27:34.739Z,46.97
2022-09-07T09:30:12.097Z,46.77
2022-09-07T09:32:43.461Z,46.58
2022-09-07T09:35:24.193Z,46.37
2022-09-07T09:37:53.122Z,46.31
2022-09-07T09:40:32.461Z,46.38
2022-09-07T09:43:08.433Z,46.24
2022-09-07T09:48:36.003Z,46.09
2022-09-07T09:54:34.283Z,45.78
2022-09-07T09:57:04.272Z,45.78
2022-09-07T10:05:40.250Z,45.54
2022-09-07T10:08:29.303Z,45.46
2022-09-07T10:11:14.500Z,45.28
2022-09-07T10:13:56.671Z,45.39
2022-09-07T10:16:42.294Z,45.22
2022-09-07T10:19:38.306Z,45.18
2022-09-07T10:22:36.248Z,45.11
2022-09-07T10:25:29.887Z,45.21
2022-09-07T10:28:17.492Z,45.20
2022-09-07T10:31:04.154Z,44.93
2022-09-07T10:33:32.578Z,44.72
2022-09-07T10:36:35.943Z,44.90
2022-09-07T10:39:14.905Z,44.88
2022-09-07T10:42:02.291Z,44.79
2022-09-07T10:44:45.754Z,44.69
2022-09-07T10:47:33.149Z,44.57
2022-09-07T10:50:29.454Z,44.32
2022-09-07T10:53:40.769Z,44.49
2022-09-07T10:56:15.463Z,44.42
2022-09-07T10:59:04.214Z,44.32
2022-09-07T11:01:55.871Z,44.38
2022-09-07T11:04:40.822Z,44.25
2022-09-07T11:07:28.710Z,44.24
2022-09-07T11:10:04.347Z,43.97
2022-09-07T11:12:37.046Z,44.00
2022-09-07T11:15:18.271Z,43.66
2022-09-07T11:17:53.403Z,43.85
2022-09-07T11:20:28.740Z,44.02
2022-09-07T11:23:03.341Z,43.66
2022-09-07T11:25:47.611Z,43.65
2022-09-07T11:28:24.490Z,43.46
2022-09-07T11:31:02.598Z,43.48
2022-09-07T11:34:23.836Z,43.33
2022-09-07T11:37:01.885Z,43.46
2022-09-07T11:40:01.760Z,43.31
2022-09-07T11:42:53.091Z,43.44
2022-09-07T11:45:29.374Z,43.77
2022-09-07T11:48:19.591Z,43.23
2022-09-07T11:50:53.563Z,43.12
2022-09-07T11:53:24.386Z,43.19
2022-09-07T11:56:03.931Z,43.14
2022-09-07T11:58:53.784Z,43.03
2022-09-07T12:02:04.596Z,42.88
2022-09-07T12:04:42.962Z,43.02
2022-09-07T12:07:36.262Z,42.75
2022-09-07T12:10:19.485Z,42.70
2022-09-07T12:12:51.311Z,42.54
2022-09-07T12:15:41.622Z,42.54
2022-09-07T12:18:37.093Z,42.32
2022-09-07T12:21:25.942Z,42.18
2022-09-07T12:23:56.981Z,42.14
2022-09-07T12:26:35.352Z,42.20
2022-09-07T12:29:17.899Z,42.19
2022-09-07T12:32:52.337Z,42.02
2022-09-07T12:34:52.476Z,42.23
2022-09-07T12:37:27.459Z,41.95
2022-09-07T12:40:30.649Z,41.90
2022-09-07T12:43:14.585Z,41.89
2022-09-07T12:45:42.632Z,42.00
2022-09-07T12:48:16.966Z,41.76
2022-09-07T12:50:57.612Z,41.71
2022-09-07T12:53:57.414Z,41.51
2022-09-07T12:57:28.988Z,41.31
2022-09-07T12:59:46.619Z,41.40
2022-09-07T13:02:52.815Z,41.39
2022-09-07T13:06:06.286Z,41.30
2022-09-07T13:09:05.341Z,41.34
2022-09-07T13:11:40.123Z,41.39
2022-09-07T13:14:15.888Z,41.47
2022-09-07T13:19:51.965Z,41.11
2022-09-07T13:22:36.124Z,41.22
2022-09-07T13:25:20.843Z,41.33
2022-09-07T13:27:58.792Z,41.29
2022-09-07T13:30:57.440Z,41.32
2022-09-07T13:33:27.409Z,41.08
2022-09-07T13:36:02.654Z,41.13
2022-09-07T13:38:35.554Z,41.18
2022-09-07T13:41:16.305Z,41.02
2022-09-07T13:43:57.217Z,40.75
2022-09-07T13:46:47.986Z,40.58
2022-09-07T13:49:56.643Z,40.60
2022-09-07T13:52:46.972Z,40.53
2022-09-07T13:55:46.306Z,40.48
2022-09-07T13:58:33.908Z,40.78
2022-09-07T14:01:15.298Z,40.59
2022-09-07T14:04:08.163Z,40.47
2022-09-07T14:06:39.013Z,40.31
2022-09-07T14:09:27.908Z,40.36
2022-09-07T14:11:56.801Z,40.26
2022-09-07T14:14:29.960Z,40.30
2022-09-07T14:17:04.698Z,40.24
2022-09-07T14:19:40.456Z,40.20
2022-09-07T14:22:14.992Z,40.31
2022-09-07T14:25:06.253Z,40.36
2022-09-07T14:27:37.707Z,40.15
2022-09-07T14:30:26.411Z,40.19
2022-09-07T14:33:00.857Z,39.95
2022-09-07T14:35:34.816Z,39.92
2022-09-07T14:41:20.786Z,39.88
2022-09-07T14:43:54.515Z,39.69
2022-09-07T14:46:37.962Z,39.75
2022-09-07T14:49:20.451Z,39.63
2022-09-07T14:51:51.015Z,39.90
2022-09-07T14:54:32.623Z,39.86
2022-09-07T14:57:07.014Z,39.75
2022-09-07T14:59:44.001Z,39.64
2022-09-07T15:02:18.313Z,39.66
2022-09-07T15:04:48.228Z,39.57
2022-09-07T15:07:29.947Z,39.47
2022-09-07T15:10:26.580Z,39.49
2022-09-07T15:13:01.773Z,39.48
2022-09-07T15:15:32.458Z,39.44
2022-09-07T15:18:09.008Z,39.42
2022-09-07T15:20:41.966Z,39.43
2022-09-07T15:23:14.528Z,39.51
2022-09-07T15:25:50.482Z,39.44
2022-09-07T15:34:16.002Z,39.28
2022-09-07T15:36:50.950Z,39.26
2022-09-07T15:39:25.769Z,39.28
2022-09-07T15:41:54.890Z,39.17
2022-09-07T15:44:26.497Z,39.00
2022-09-07T15:49:51.345Z,39.08
2022-09-07T15:52:21.004Z,38.90
2022-09-07T15:54:51.612Z,38.94
2022-09-07T16:00:11.195Z,38.74
2022-09-07T16:05:35.783Z,38.88
2022-09-07T16:10:56.451Z,38.84
2022-09-07T16:13:34.249Z,38.92
2022-09-07T16:16:05.912Z,39.13
2022-09-07T16:18:35.821Z,38.95
2022-09-07T16:21:15.642Z,39.24
2022-09-07T16:23:50.781Z,39.23
2022-09-07T16:26:22.125Z,39.21
2022-09-07T16:28:53.194Z,39.20
2022-09-07T16:31:27.560Z,39.19
2022-09-07T16:33:56.731Z,39.37
2022-09-07T16:36:25.862Z,39.39
2022-09-07T16:38:59.975Z,39.43
2022-09-07T16:41:35.162Z,39.53
2022-09-07T16:44:04.152Z,39.54
2022-09-07T16:46:35.849Z,39.57
2022-09-07T16:49:07.696Z,39.63
2022-09-07T16:51:36.280Z,39.80
2022-09-07T16:54:05.684Z,40.09
2022-09-07T16:56:38.778Z,40.29
2022-09-07T16:59:09.846Z,40.40
2022-09-07T17:01:39.198Z,40.56
2022-09-07T17:04:11.615Z,40.84
2022-09-07T17:06:41.255Z,40.86
2022-09-07T17:09:13.332Z,40.92
2022-09-07T17:11:42.843Z,41.09
2022-09-07T17:14:13.661Z,41.23
2022-09-07T17:16:43.572Z,41.09
2022-09-07T17:19:30.287Z,41.19
2022-09-07T17:22:01.679Z,41.39
2022-09-07T17:24:32.178Z,41.61
2022-09-07T17:27:01.347Z,41.45
2022-09-07T17:29:38.477Z,41.64
2022-09-07T17:32:24.523Z,41.86
2022-09-07T17:34:55.773Z,42.11
2022-09-07T17:37:27.476Z,42.25
2022-09-07T17:39:56.899Z,42.32
2022-09-07T17:43:38.758Z,42.59
2022-09-07T17:45:17.489Z,42.76
2022-09-07T17:47:45.877Z,43.08
2022-09-07T17:50:14.953Z,43.09
2022-09-07T17:52:45.992Z,43.31
2022-09-07T17:55:15.305Z,43.29
2022-09-07T17:57:43.606Z,43.52
2022-09-07T18:00:13.059Z,43.72
2022-09-07T18:02:42.913Z,43.81
2022-09-07T18:05:12.878Z,43.97
2022-09-07T18:07:41.488Z,44.11
2022-09-07T18:10:10.221Z,44.32
2022-09-07T18:12:38.868Z,44.52
2022-09-07T18:15:08.120Z,44.56
2022-09-07T18:17:36.338Z,44.77
2022-09-07T18:20:04.956Z,44.91
2022-09-07T18:22:34.590Z,45.07
2022-09-07T18:25:03.508Z,45.14
2022-09-07T18:27:31.901Z,45.14
2022-09-07T18:30:01.398Z,45.35
2022-09-07T18:32:31.967Z,45.57
2022-09-07T18:35:00.913Z,45.55
2022-09-07T18:37:31.494Z,45.70
2022-09-07T18:40:00.206Z,45.74
2022-09-07T18:42:30.139Z,46.00
2022-09-07T18:47:47.695Z,45.97
2022-09-07T18:50:17.063Z,45.83
2022-09-07T18:52:53.249Z,45.74
2022-09-07T18:55:23.943Z,45.67
2022-09-07T18:57:52.118Z,45.89
2022-09-07T19:00:20.428Z,46.10
2022-09-07T19:02:52.261Z,46.03
2022-09-07T19:08:10.691Z,45.66
2022-09-07T19:10:39.433Z,45.59
2022-09-07T19:13:08.142Z,45.56
2022-09-07T19:15:37.648Z,45.51
2022-09-07T19:18:08.083Z,45.52
2022-09-07T19:20:40.632Z,45.53
2022-09-07T19:23:09.555Z,45.62
2022-09-07T19:25:41.163Z,45.63
2022-09-07T19:28:09.558Z,45.67
2022-09-07T19:30:38.103Z,45.46
2022-09-07T19:33:10.343Z,45.39
2022-09-07T19:35:39.330Z,45.42
2022-09-07T19:38:08.361Z,45.46
2022-09-07T19:40:36.479Z,45.27
2022-09-07T19:43:04.858Z,45.41
2022-09-07T19:45:37.047Z,45.48
2022-09-07T19:48:05.725Z,45.43
2022-09-07T19:50:33.961Z,45.35
2022-09-07T19:53:02.747Z,45.53
2022-09-07T19:55:31.669Z,45.40
2022-09-07T19:58:00.536Z,45.57
2022-09-07T20:00:29.910Z,45.76
2022-09-07T20:02:58.712Z,45.84
2022-09-07T20:05:32.334Z,45.83
2022-09-07T20:08:01.898Z,45.58
2022-09-07T20:10:32.528Z,45.75
2022-09-07T20:13:00.919Z,45.71
2022-09-07T20:15:30.202Z,45.58
2022-09-07T20:17:59.633Z,45.59
2022-09-07T20:20:28.204Z,45.69
2022-09-07T20:22:56.373Z,45.74
2022-09-07T20:25:25.480Z,45.62
2022-09-07T20:27:53.795Z,45.83
2022-09-07T20:30:24.536Z,45.77
2022-09-07T20:32:53.064Z,45.85
2022-09-07T20:35:21.804Z,45.81
2022-09-07T20:37:51.288Z,45.97
2022-09-07T20:40:20.092Z,45.94
2022-09-07T20:42:48.521Z,46.02
2022-09-07T20:45:16.818Z,45.97
2022-09-07T20:47:45.957Z,45.97
2022-09-07T20:50:14.755Z,46.07
2022-09-07T20:52:43.365Z,46.03
2022-09-07T20:55:11.881Z,46.08
2022-09-07T20:57:40.448Z,46.30
2022-09-07T21:00:09.410Z,45.93
2022-09-07T21:02:37.987Z,46.35
2022-09-07T21:05:08.202Z,46.38
2022-09-07T21:07:39.882Z,46.22
2022-09-07T21:10:10.073Z,46.23
2022-09-07T21:12:39.102Z,46.16
2022-09-07T21:15:09.875Z,46.31
2022-09-07T21:17:39.019Z,46.49
2022-09-07T21:20:08.345Z,46.50
2022-09-07T21:22:38.593Z,46.28
2022-09-07T21:25:07.942Z,46.28
2022-09-07T21:27:39.010Z,46.49
2022-09-07T21:30:08.105Z,46.39
2022-09-07T21:32:36.494Z,46.69
2022-09-07T21:35:05.591Z,46.60
2022-09-07T21:37:34.691Z,46.47
2022-09-07T21:40:06.550Z,46.54
2022-09-07T21:42:35.523Z,46.42
2022-09-07T21:45:07.761Z,46.70
2022-09-07T21:47:36.816Z,46.57
2022-09-07T21:50:06.374Z,46.64
2022-09-07T21:52:35.463Z,46.57
2022-09-07T21:55:04.669Z,46.46
2022-09-07T21:57:33.847Z,46.45
2022-09-07T22:00:03.239Z,46.51
2022-09-07T22:02:41.149Z,46.88
2022-09-07T22:05:10.524Z,46.82
2022-09-07T22:07:39.587Z,46.77
2022-09-07T22:10:09.894Z,47.10
2022-09-07T22:12:38.878Z,46.90
2022-09-07T22:15:07.861Z,46.70
2022-09-07T22:17:36.638Z,46.85
2022-09-07T22:20:06.136Z,46.93
2022-09-07T22:22:34.715Z,47.25
2022-09-07T22:25:03.376Z,47.23
2022-09-07T22:27:32.408Z,47.09
2022-09-07T22:30:01.107Z,47.24
2022-09-07T22:32:30.074Z,47.01
2022-09-07T22:34:58.801Z,47.19
2022-09-07T22:37:27.590Z,47.24
2022-09-07T22:39:56.556Z,47.26
2022-09-07T22:42:25.470Z,47.12
2022-09-07T22:44:54.317Z,47.22
2022-09-07T22:47:23.329Z,47.12
2022-09-07T22:49:52.105Z,47.19
2022-09-07T22:52:20.975Z,47.10
2022-09-07T22:54:49.867Z,47.04
2022-09-07T22:57:19.385Z,47.22
2022-09-07T22:59:48.228Z,46.89
